Terminal Aerodrome Forecast
Issued by NWS

Home | Current Version | Previous Version | Text Only | Print | Product List | Glossary On
Versions: 1 2 3 4 5 6 7 8 9 10 11 12 13 14 15 16 17 18 19 20 21 22 23 24 25 26 27 28 29 30 31 32 33 34 35 36 37 38
000
FTUS43 KDLH 300300 AAB
TAFBRD
TAF AMD
KBRD 300354Z 3004/3024 08005KT P6SM OVC012
      TEMPO 3004/3008 OVC008
     FM301400 11008KT P6SM BKN025
     FM302000 12012KT P6SM SCT030 BKN100=

USA.gov is the U.S. government's official web portal to all federal, state and local government web resources and services.